Ducor, CA

8:05 PM PDT on August 27, 2014 (GMT -0700)
Hanford Municipal | Change Station
CLOSE
Current Station
Airport
Location: Hanford,
Elevation: 243 ft
Nearby Weather Stations

Elev 243 ft 36.32 °N, 119.63 °W | Updated 12 minutes ago

Clear
Clear
86 °F
Feels Like 84 °F
N
4
Wind Variable Wind from East

Today
High -- | Low -- °F
--% Chance of Precip.
Yesterday
High -- | Low -- °F
Precip. -- in
6:24 AM 7:30 PM
Waxing Crescent, 6% visible
Pressure 29.94 in
Visibility 9.0 miles
Clouds Clear
Heat Index 84 °F
Dew Point 55 °F
Humidity 35%
Rainfall 0.00 in
Snow Depth Not available.
UV 0 out of 12
Pollen 8.60 out of 12
PM2.5 Good
Flu Activity Not available.
METAR KHJO 280253Z AUTO 08003KT 9SM CLR 30/13 A2994 RMK AO2 SLP138 T03000128 55000

More Conditions Fewer Conditions

Pressure 29.94 in
Visibility 9.0 miles
Clouds Clear
Heat Index 84 °F
Dew Point 55 °F
Humidity 35%
Rainfall 0.00 in
Snow Depth Not available.
UV 0 out of 12
Pollen 8.60 out of 12
PM2.5 Good
Flu Activity Not available.
METAR KHJO 280253Z AUTO 08003KT 9SM CLR 30/13 A2994 RMK AO2 SLP138 T03000128 55000

More Conditions Fewer Conditions

10-Day Weather Forecast

Almanac

Astronomy

Aug. 27, 2014 Rise Set
Actual Time 6:24 AM PDT 7:30 PM PDT
Civil Twilight 5:58 AM PDT 7:56 PM PDT
Nautical Twilight 5:26 AM PDT 8:28 PM PDT
Astronomical Twilight 4:54 AM PDT 9:00 PM PDT
Moon 8:19 AM PDT (8/27) 8:31 PM PDT (8/27)
Length of Visible Light 13h 58m
Length of Day
13h 06m
Tomorrow will be 2m 9s shorter.
Waxing Crescent, 6% of the Moon is Illuminated
Today
Waxing Crescent
Sep 2
First Quarter
Sep 8
Full
Sep 15
Last Quarter
Sep 24
New

Today's Extremes

State Highs State Lows

Community

WunderPhotos

Upload Photos

1,747,888 photos uploaded!

Nearby

Air Quality

  Air Quality AQ Index Pollutant
Yesterday Moderate
OZONE
Yesterday Good
PM2.5
Current Good
PM2.5
Wednesday Moderate
PM2.5
Thursday Unhealthy for Sensitive Groups
OZONE
Friday Unhealthy for Sensitive Groups
OZONE
Saturday Unhealthy for Sensitive Groups
OZONE
Sunday Unhealthy for Sensitive Groups
OZONE
Monday Unhealthy for Sensitive Groups
OZONE

Snow Depth

Station Depth Elevation
Leavitt Meadows 1 in 7200 ft
Summit Meadow 0 in 9122 ft
Monitor Pass 0 in 8350 ft
Hagan's Meadow 0 in 8000 ft
Rubicon #2 0 in 7500 ft

Earthquake Activity

City Distance Mag. Time & Date
San Fernando, California 119 miles 2.5 4:57 AM PDT
2014-08-26
Minimum magnitude displayed is 2.5.

Coastal Water Temperatures

Place Temperature
No Stations Reporting

Nearby Weather Stations